Time;durP1;ratioP1;P1;durP2;ratioP2;P2;SDS_P1;SDS_P2;PMS_P1;PMS_P2;Temp;Humidity;BMP_temperature;BMP_pressure;BME280_temperature;BME280_humidity;BME280_pressure;Samples;Min_cycle;Max_cycle;Signal;HPM_P1;HPM_P2
2022/03/14 00:00:04;;;;;;;3.58;1.33;;;11.40;55.40;;;;;;20670893;28;20403;-62
2022/03/14 00:10:09;;;;;;;5.80;1.67;;;11.40;55.30;;;;;;20670780;28;20054;-61
2022/03/14 00:20:13;;;;;;;3.67;1.67;;;11.40;55.30;;;;;;20669740;28;20076;-61
2022/03/14 00:30:14;;;;;;;4.07;1.75;;;11.40;55.30;;;;;;20671771;28;20115;-62
2022/03/14 00:40:16;;;;;;;3.55;1.95;;;11.30;55.50;;;;;;20667738;28;20047;-63
2022/03/14 00:50:18;;;;;;;4.80;1.40;;;11.10;55.80;;;;;;20665769;28;20073;-62
2022/03/14 01:00:20;;;;;;;2.60;1.70;;;11.00;56.20;;;;;;20667391;28;20073;-64
2022/03/14 01:10:23;;;;;;;3.70;1.70;;;10.90;56.30;;;;;;20633721;28;20052;-62
2022/03/14 01:20:25;;;;;;;4.25;1.65;;;10.90;56.20;;;;;;20666462;28;20141;-62
2022/03/14 01:30:27;;;;;;;2.00;1.10;;;10.90;56.10;;;;;;20665517;28;20459;-62
2022/03/14 01:40:28;;;;;;;4.70;0.95;;;10.90;56.00;;;;;;20665178;28;20066;-61
2022/03/14 01:50:30;;;;;;;2.17;0.93;;;10.90;55.90;;;;;;20662130;28;20483;-62
2022/03/14 02:00:32;;;;;;;3.35;1.15;;;10.80;55.90;;;;;;20669833;28;20050;-61
2022/03/14 02:10:34;;;;;;;2.35;0.90;;;10.90;55.90;;;;;;20678870;28;20086;-61
2022/03/14 02:20:36;;;;;;;3.95;0.75;;;10.80;56.10;;;;;;20678092;28;20090;-62
2022/03/14 02:30:39;;;;;;;1.30;0.60;;;10.80;56.30;;;;;;20677303;28;20050;-61
2022/03/14 02:40:46;;;;;;;2.47;0.57;;;10.80;56.50;;;;;;20676642;28;20065;-63
2022/03/14 02:50:56;;;;;;;1.52;0.57;;;10.90;56.70;;;;;;20677355;28;20054;-61
2022/03/14 03:01:04;;;;;;;2.10;0.60;;;10.70;57.30;;;;;;20675763;28;20466;-62
2022/03/14 03:11:08;;;;;;;1.27;0.60;;;10.70;57.50;;;;;;20673340;28;20061;-62
2022/03/14 03:21:11;;;;;;;1.38;0.57;;;10.70;57.90;;;;;;20673047;28;20054;-62
2022/03/14 03:31:18;;;;;;;3.13;1.00;;;10.70;58.20;;;;;;20672080;28;20046;-62
2022/03/14 03:41:21;;;;;;;2.65;0.60;;;10.70;58.80;;;;;;20671593;28;20438;-60
2022/03/14 03:51:23;;;;;;;2.30;0.80;;;10.60;59.50;;;;;;20671195;28;20498;-63
2022/03/14 04:01:26;;;;;;;2.08;0.90;;;10.60;59.80;;;;;;20671218;28;20104;-61
2022/03/14 04:11:28;;;;;;;2.03;0.95;;;10.70;60.10;;;;;;20669572;28;20189;-63
2022/03/14 04:21:34;;;;;;;1.00;0.60;;;10.80;60.20;;;;;;20668266;28;20058;-61
2022/03/14 04:31:37;;;;;;;2.33;0.75;;;10.70;60.60;;;;;;20667586;28;20454;-62
2022/03/14 04:41:39;;;;;;;3.25;1.10;;;10.70;60.70;;;;;;20667057;28;20491;-61
2022/03/14 04:51:42;;;;;;;2.40;0.98;;;10.80;60.60;;;;;;20667748;28;20081;-62
2022/03/14 05:01:46;;;;;;;1.65;0.50;;;10.70;60.80;;;;;;20666920;28;20046;-61
2022/03/14 05:11:49;;;;;;;2.38;0.65;;;10.60;60.90;;;;;;20666643;28;20050;-62
2022/03/14 05:21:51;;;;;;;1.70;0.60;;;10.60;60.80;;;;;;20666399;28;20058;-62
2022/03/14 05:31:53;;;;;;;1.10;0.60;;;10.60;60.80;;;;;;20665411;28;20065;-62
2022/03/14 05:41:55;;;;;;;2.88;0.77;;;10.60;60.70;;;;;;20681650;28;20463;-61
2022/03/14 05:51:57;;;;;;;4.07;0.70;;;10.60;60.80;;;;;;20679644;28;20054;-61
2022/03/14 06:01:59;;;;;;;1.63;0.77;;;10.50;61.20;;;;;;20679486;28;20136;-62
2022/03/14 06:12:02;;;;;;;1.83;0.50;;;10.50;61.10;;;;;;20679659;28;20487;-62
2022/03/14 06:22:04;;;;;;;2.35;0.90;;;10.50;61.10;;;;;;20678034;28;20415;-62
2022/03/14 06:32:06;;;;;;;1.75;0.70;;;10.40;61.40;;;;;;20677245;28;20552;-62
2022/03/14 06:42:10;;;;;;;2.25;0.55;;;10.40;62.40;;;;;;20677808;28;20050;-61
2022/03/14 06:52:15;;;;;;;2.00;0.82;;;10.30;63.30;;;;;;20677291;28;20061;-61
2022/03/14 07:02:17;;;;;;;1.27;0.50;;;10.20;64.20;;;;;;20677209;28;20403;-63
2022/03/14 07:12:19;;;;;;;1.88;0.75;;;9.90;65.10;;;;;;20674374;28;20050;-61
2022/03/14 07:22:21;;;;;;;3.67;0.95;;;9.80;66.20;;;;;;20674238;28;20124;-61
2022/03/14 07:32:22;;;;;;;3.60;0.85;;;9.30;68.40;;;;;;20673309;28;20487;-63
2022/03/14 07:42:24;;;;;;;2.83;0.73;;;8.70;70.80;;;;;;20675637;28;20050;-67
2022/03/14 07:52:25;;;;;;;2.28;0.75;;;8.50;72.80;;;;;;20673633;28;20493;-61
2022/03/14 08:02:26;;;;;;;2.67;0.65;;;8.40;74.20;;;;;;20670558;28;20567;-61
2022/03/14 08:12:28;;;;;;;1.52;0.70;;;8.00;76.10;;;;;;20671412;28;20053;-63
2022/03/14 08:22:28;;;;;;;1.50;0.70;;;7.90;77.00;;;;;;20673478;28;20137;-62
2022/03/14 08:32:32;;;;;;;2.50;0.70;;;8.00;77.70;;;;;;20671851;28;20058;-62
2022/03/14 08:42:34;;;;;;;1.42;0.57;;;7.90;78.30;;;;;;20670030;28;20047;-62
2022/03/14 08:52:37;;;;;;;1.65;0.57;;;7.80;79.40;;;;;;20669038;28;20138;-62
2022/03/14 09:02:40;;;;;;;2.95;0.60;;;7.90;79.70;;;;;;20667189;28;20453;-62
2022/03/14 09:12:44;;;;;;;1.58;0.65;;;7.90;80.50;;;;;;20676948;28;20110;-62
2022/03/14 09:22:47;;;;;;;1.92;0.57;;;7.70;81.00;;;;;;20682615;28;20058;-62
2022/03/14 09:32:50;;;;;;;2.17;0.80;;;7.70;80.90;;;;;;20682857;28;20050;-62
2022/03/14 09:42:55;;;;;;;2.22;0.70;;;7.70;81.10;;;;;;20681207;28;20073;-63
2022/03/14 09:52:58;;;;;;;1.10;0.68;;;7.60;81.70;;;;;;20680656;28;20055;-63
2022/03/14 10:03:03;;;;;;;1.20;0.50;;;7.60;82.00;;;;;;20680403;28;20058;-62
2022/03/14 10:13:06;;;;;;;1.30;0.40;;;7.60;82.70;;;;;;20678836;28;20545;-63
2022/03/14 10:23:07;;;;;;;3.80;0.30;;;7.50;82.90;;;;;;20677630;28;20054;-62
2022/03/14 10:33:10;;;;;;;2.80;0.57;;;7.50;82.70;;;;;;20674300;28;20050;-62
2022/03/14 10:43:25;;;;;;;0.82;0.32;;;7.60;82.30;;;;;;20671700;28;20116;-65
2022/03/14 10:53:28;;;;;;;2.42;0.80;;;8.70;80.80;;;;;;20669287;28;21020;-62
2022/03/14 11:03:32;;;;;;;1.08;0.40;;;8.40;79.10;;;;;;20669418;28;20069;-60
2022/03/14 11:13:45;;;;;;;1.77;0.50;;;7.70;80.90;;;;;;20671881;28;20498;-62
2022/03/14 11:23:48;;;;;;;1.80;0.63;;;8.60;80.10;;;;;;20669421;28;20050;-59
2022/03/14 11:33:50;;;;;;;1.80;0.60;;;8.10;79.80;;;;;;20668364;28;20042;-62
2022/03/14 11:43:53;;;;;;;1.70;0.80;;;8.40;81.00;;;;;;20668029;28;20498;-57
2022/03/14 11:53:57;;;;;;;1.52;0.50;;;9.50;79.10;;;;;;20672237;28;20511;-60
2022/03/14 12:04:02;;;;;;;2.13;0.73;;;8.60;79.40;;;;;;20671570;28;20158;-60
2022/03/14 12:14:08;;;;;;;1.83;0.68;;;8.00;81.40;;;;;;20669381;28;20061;-60
2022/03/14 12:24:46;;;;;;;1.92;0.68;;;8.00;82.20;;;;;;20668685;28;20065;-61
2022/03/14 12:35:06;;;;;;;2.00;0.50;;;8.10;82.30;;;;;;20667465;28;20491;-59
2022/03/14 12:45:30;;;;;;;2.17;0.75;;;8.10;82.40;;;;;;20667562;28;20104;-59
2022/03/14 12:55:32;;;;;;;3.15;1.20;;;8.10;82.60;;;;;;20667614;28;20053;-60
2022/03/14 13:05:41;;;;;;;2.70;0.90;;;8.30;82.50;;;;;;20665975;28;20058;-61
2022/03/14 13:15:43;;;;;;;2.27;0.70;;;8.30;82.80;;;;;;20665595;28;20057;-59
2022/03/14 13:25:48;;;;;;;1.63;1.10;;;8.40;83.00;;;;;;20666027;28;20055;-59
2022/03/14 13:35:58;;;;;;;3.30;0.73;;;8.60;82.90;;;;;;20664557;28;20053;-59
2022/03/14 13:46:29;;;;;;;2.40;1.20;;;8.70;82.90;;;;;;20665409;28;20050;-59
2022/03/14 13:56:36;;;;;;;1.83;0.90;;;8.80;83.10;;;;;;20670890;28;20084;-60
2022/03/14 14:06:50;;;;;;;1.75;0.80;;;8.90;83.00;;;;;;20678596;28;20046;-60
2022/03/14 14:17:06;;;;;;;1.60;0.93;;;9.10;83.10;;;;;;20678250;28;20113;-60
2022/03/14 14:27:15;;;;;;;4.97;1.50;;;9.30;83.00;;;;;;20676994;28;20063;-59
2022/03/14 14:37:18;;;;;;;5.07;1.50;;;9.50;83.10;;;;;;20676489;28;20450;-62
2022/03/14 14:47:20;;;;;;;3.05;1.60;;;9.70;83.00;;;;;;20676722;28;20402;-59
2022/03/14 14:57:23;;;;;;;3.90;2.08;;;9.90;82.80;;;;;;20674023;28;20066;-58
2022/03/14 15:07:26;;;;;;;8.30;1.90;;;10.20;82.70;;;;;;20670418;28;20051;-64
2022/03/14 15:17:32;;;;;;;8.93;2.00;;;10.70;82.20;;;;;;20670519;28;20126;-63
2022/03/14 15:27:36;;;;;;;8.82;2.60;;;11.20;81.20;;;;;;20667485;28;20061;-62
2022/03/14 15:37:39;;;;;;;24.25;3.47;;;11.70;80.80;;;;;;20664955;28;20046;-58
2022/03/14 15:47:43;;;;;;;30.30;4.93;;;12.70;79.40;;;;;;20657304;28;20050;-63
2022/03/14 15:57:51;;;;;;;34.70;4.32;;;13.50;76.70;;;;;;20654440;28;20053;-63
2022/03/14 16:07:54;;;;;;;32.15;4.57;;;13.30;77.10;;;;;;20658536;28;20475;-63
2022/03/14 16:17:56;;;;;;;27.02;4.15;;;13.50;76.20;;;;;;20659957;28;20060;-62
2022/03/14 16:27:58;;;;;;;36.10;3.85;;;13.70;74.70;;;;;;20653716;28;20466;-62
2022/03/14 16:38:01;;;;;;;29.23;4.05;;;13.80;73.20;;;;;;20659677;28;20375;-64
2022/03/14 16:48:03;;;;;;;42.38;3.90;;;14.20;71.80;;;;;;20656255;28;20053;-62
2022/03/14 16:58:06;;;;;;;38.08;4.97;;;14.50;71.20;;;;;;20653050;28;20453;-58
2022/03/14 17:08:09;;;;;;;37.83;5.20;;;14.80;70.70;;;;;;20653904;28;20129;-64
2022/03/14 17:18:13;;;;;;;47.60;5.45;;;15.00;69.90;;;;;;20653382;28;20081;-68
2022/03/14 17:28:17;;;;;;;32.08;4.15;;;14.80;69.90;;;;;;20656245;28;20096;-56
2022/03/14 17:38:19;;;;;;;39.97;5.15;;;15.10;71.00;;;;;;20678604;28;20105;-58
2022/03/14 17:48:20;;;;;;;53.63;5.97;;;15.50;67.80;;;;;;20678641;28;20086;-61
2022/03/14 17:58:24;;;;;;;58.42;6.70;;;14.80;68.40;;;;;;20678558;28;20051;-61
2022/03/14 18:08:26;;;;;;;48.95;6.35;;;14.60;70.50;;;;;;20677061;28;20056;-64
2022/03/14 18:18:28;;;;;;;67.65;8.43;;;15.20;68.60;;;;;;20677363;28;20053;-66
2022/03/14 18:28:30;;;;;;;50.85;9.40;;;14.60;70.60;;;;;;20677422;28;20069;-63
2022/03/14 18:38:32;;;;;;;59.55;7.90;;;14.70;69.90;;;;;;20677246;28;20047;-61
2022/03/14 18:48:36;;;;;;;70.90;8.63;;;14.30;71.50;;;;;;20675267;28;20150;-60
2022/03/14 18:58:38;;;;;;;76.35;8.93;;;14.20;71.90;;;;;;20676758;28;20050;-63
2022/03/14 19:08:40;;;;;;;81.25;13.60;;;14.00;72.70;;;;;;20675866;28;20061;-63
2022/03/14 19:18:44;;;;;;;85.13;10.50;;;14.00;72.90;;;;;;20673217;28;20042;-68
2022/03/14 19:28:46;;;;;;;68.65;8.95;;;13.90;73.90;;;;;;20670372;28;20056;-66
2022/03/14 19:38:48;;;;;;;63.92;8.77;;;13.90;74.10;;;;;;20669177;28;20046;-64
2022/03/14 19:48:50;;;;;;;80.80;10.65;;;13.90;74.40;;;;;;20666357;28;20066;-63
2022/03/14 19:58:52;;;;;;;55.67;7.90;;;14.00;74.80;;;;;;20666570;28;20088;-59
2022/03/14 20:08:57;;;;;;;57.53;9.43;;;13.90;75.00;;;;;;20671053;28;20054;-61
2022/03/14 20:18:59;;;;;;;60.13;9.68;;;14.10;75.10;;;;;;20669696;28;20053;-61
2022/03/14 20:29:01;;;;;;;85.38;11.25;;;13.90;75.30;;;;;;20668680;28;20086;-61
2022/03/14 20:39:04;;;;;;;72.05;9.93;;;13.80;75.40;;;;;;20667481;28;20466;-61
2022/03/14 20:49:06;;;;;;;96.80;14.07;;;13.70;75.60;;;;;;20669201;28;20148;-61
2022/03/14 20:59:08;;;;;;;49.67;7.82;;;13.70;75.70;;;;;;20666964;28;20050;-62
2022/03/14 21:09:10;;;;;;;23.95;4.35;;;13.60;75.90;;;;;;20665925;28;20058;-61
2022/03/14 21:19:14;;;;;;;22.70;4.25;;;13.30;76.30;;;;;;20666035;28;20054;-62
2022/03/14 21:29:15;;;;;;;25.98;4.65;;;13.10;76.90;;;;;;20665564;28;20136;-62
2022/03/14 21:39:17;;;;;;;24.67;4.03;;;13.00;76.70;;;;;;20664911;28;20104;-61
2022/03/14 21:49:19;;;;;;;36.28;4.70;;;12.90;76.90;;;;;;20665867;28;20051;-61
2022/03/14 21:59:21;;;;;;;30.70;9.40;;;12.80;77.20;;;;;;20663898;28;20042;-60
2022/03/14 22:09:23;;;;;;;31.20;5.78;;;12.80;77.40;;;;;;20664683;28;20054;-62
2022/03/14 22:19:25;;;;;;;26.63;5.18;;;12.70;77.40;;;;;;20672555;28;20077;-60
2022/03/14 22:29:26;;;;;;;61.92;8.52;;;12.60;77.60;;;;;;20678259;28;20054;-59
2022/03/14 22:39:28;;;;;;;85.65;9.57;;;12.50;77.60;;;;;;20677018;28;20100;-61
2022/03/14 22:49:29;;;;;;;81.13;10.45;;;12.60;77.10;;;;;;20674992;28;20050;-60
2022/03/14 22:59:31;;;;;;;88.55;8.88;;;12.80;75.70;;;;;;20674715;28;20080;-60
2022/03/14 23:09:33;;;;;;;83.63;9.60;;;13.00;74.00;;;;;;20674076;28;20087;-61
2022/03/14 23:19:34;;;;;;;82.70;10.27;;;13.10;72.70;;;;;;20673409;28;20050;-61
2022/03/14 23:29:37;;;;;;;80.43;10.68;;;13.10;71.20;;;;;;20671769;28;20054;-59
2022/03/14 23:39:38;;;;;;;79.88;9.82;;;13.20;70.80;;;;;;20687470;28;20489;-60
2022/03/14 23:49:40;;;;;;;94.93;10.32;;;13.20;70.10;;;;;;20672974;28;20122;-60
2022/03/14 23:59:41;;;;;;;82.63;11.55;;;13.20;69.40;;;;;;20671764;28;20046;-60
